sensor_id;sensor_type;location;lat;lon;timestamp;pressure;altitude;pressure_sealevel;temperature;humidity
70684;BME280;58263;48.146;11.440;2023-06-22T00:01:16;95753.25;;;22.83;58.81
70684;BME280;58263;48.146;11.440;2023-06-22T00:03:41;95741.69;;;22.86;58.54
70684;BME280;58263;48.146;11.440;2023-06-22T00:06:06;95732.19;;;22.83;58.58
70684;BME280;58263;48.146;11.440;2023-06-22T00:08:32;95734.91;;;22.83;58.54
70684;BME280;58263;48.146;11.440;2023-06-22T00:10:57;95728.75;;;22.77;58.85
70684;BME280;58263;48.146;11.440;2023-06-22T00:13:22;95731.50;;;22.77;58.29
70684;BME280;58263;48.146;11.440;2023-06-22T00:15:47;95734.34;;;22.72;58.67
70684;BME280;58263;48.146;11.440;2023-06-22T00:18:13;95728.38;;;22.70;58.83
70684;BME280;58263;48.146;11.440;2023-06-22T00:20:38;95718.88;;;22.68;58.57
70684;BME280;58263;48.146;11.440;2023-06-22T00:23:05;95720.28;;;22.65;58.32
70684;BME280;58263;48.146;11.440;2023-06-22T00:25:37;95729.19;;;22.71;58.50
70684;BME280;58263;48.146;11.440;2023-06-22T00:28:03;95733.66;;;22.67;58.33
70684;BME280;58263;48.146;11.440;2023-06-22T00:30:30;95730.22;;;22.61;58.35
70684;BME280;58263;48.146;11.440;2023-06-22T00:32:56;95737.81;;;22.64;58.32
70684;BME280;58263;48.146;11.440;2023-06-22T00:35:21;95731.84;;;22.62;58.37
70684;BME280;58263;48.146;11.440;2023-06-22T00:37:46;95732.66;;;22.62;58.31
70684;BME280;58263;48.146;11.440;2023-06-22T00:40:12;95726.97;;;22.59;58.19
70684;BME280;58263;48.146;11.440;2023-06-22T00:42:39;95721.34;;;22.55;58.73
70684;BME280;58263;48.146;11.440;2023-06-22T00:45:05;95720.03;;;22.53;58.64
70684;BME280;58263;48.146;11.440;2023-06-22T00:47:31;95720.94;;;22.48;58.62
70684;BME280;58263;48.146;11.440;2023-06-22T00:49:57;95728.22;;;22.53;58.42
70684;BME280;58263;48.146;11.440;2023-06-22T00:52:23;95725.81;;;22.51;58.64
70684;BME280;58263;48.146;11.440;2023-06-22T00:54:52;95721.94;;;22.52;58.33
70684;BME280;58263;48.146;11.440;2023-06-22T00:57:18;95724.19;;;22.50;58.34
70684;BME280;58263;48.146;11.440;2023-06-22T00:59:45;95713.25;;;22.50;58.32
70684;BME280;58263;48.146;11.440;2023-06-22T01:02:12;95719.94;;;22.44;58.47
70684;BME280;58263;48.146;11.440;2023-06-22T01:04:39;95710.25;;;22.38;58.68
70684;BME280;58263;48.146;11.440;2023-06-22T01:07:10;95702.53;;;22.40;58.50
70684;BME280;58263;48.146;11.440;2023-06-22T01:09:57;95692.22;;;22.37;58.66
70684;BME280;58263;48.146;11.440;2023-06-22T01:12:26;95688.16;;;22.34;58.69
70684;BME280;58263;48.146;11.440;2023-06-22T01:15:04;95691.28;;;22.27;59.01
70684;BME280;58263;48.146;11.440;2023-06-22T01:17:31;95691.91;;;22.24;59.20
70684;BME280;58263;48.146;11.440;2023-06-22T01:19:57;95687.56;;;22.23;59.11
70684;BME280;58263;48.146;11.440;2023-06-22T01:22:29;95685.97;;;22.22;59.10
70684;BME280;58263;48.146;11.440;2023-06-22T01:25:12;95684.13;;;22.18;59.29
70684;BME280;58263;48.146;11.440;2023-06-22T01:30:27;95691.53;;;22.17;59.34
70684;BME280;58263;48.146;11.440;2023-06-22T01:32:56;95679.59;;;22.13;59.33
70684;BME280;58263;48.146;11.440;2023-06-22T01:35:22;95675.03;;;22.08;59.40
70684;BME280;58263;48.146;11.440;2023-06-22T01:37:49;95681.31;;;22.09;59.37
70684;BME280;58263;48.146;11.440;2023-06-22T01:40:15;95671.91;;;22.01;59.61
70684;BME280;58263;48.146;11.440;2023-06-22T01:42:41;95677.91;;;22.03;59.71
70684;BME280;58263;48.146;11.440;2023-06-22T01:45:09;95674.97;;;22.00;59.71
70684;BME280;58263;48.146;11.440;2023-06-22T01:47:36;95682.34;;;21.99;59.97
70684;BME280;58263;48.146;11.440;2023-06-22T01:50:01;95688.09;;;21.98;59.72
70684;BME280;58263;48.146;11.440;2023-06-22T01:52:27;95677.47;;;21.96;59.73
70684;BME280;58263;48.146;11.440;2023-06-22T01:54:52;95677.47;;;21.96;59.92
70684;BME280;58263;48.146;11.440;2023-06-22T01:57:18;95676.78;;;21.90;59.85
70684;BME280;58263;48.146;11.440;2023-06-22T02:02:24;95684.34;;;21.93;60.06
70684;BME280;58263;48.146;11.440;2023-06-22T02:04:58;95693.47;;;21.89;60.39
70684;BME280;58263;48.146;11.440;2023-06-22T02:07:28;95690.53;;;21.85;60.26
70684;BME280;58263;48.146;11.440;2023-06-22T02:13:17;95694.69;;;21.83;60.40
70684;BME280;58263;48.146;11.440;2023-06-22T02:15:42;95690.13;;;21.78;60.72
70684;BME280;58263;48.146;11.440;2023-06-22T02:18:08;95692.06;;;21.77;60.68
70684;BME280;58263;48.146;11.440;2023-06-22T02:20:37;95693.47;;;21.75;60.72
70684;BME280;58263;48.146;11.440;2023-06-22T02:23:02;95691.06;;;21.73;60.75
70684;BME280;58263;48.146;11.440;2023-06-22T02:25:27;95693.56;;;21.70;60.84
70684;BME280;58263;48.146;11.440;2023-06-22T02:27:53;95689.31;;;21.64;61.33
70684;BME280;58263;48.146;11.440;2023-06-22T02:30:18;95691.56;;;21.61;61.31
70684;BME280;58263;48.146;11.440;2023-06-22T02:32:43;95694.69;;;21.55;61.46
70684;BME280;58263;48.146;11.440;2023-06-22T02:35:09;95704.81;;;21.54;61.79
70684;BME280;58263;48.146;11.440;2023-06-22T02:37:36;95704.84;;;21.49;61.72
70684;BME280;58263;48.146;11.440;2023-06-22T02:40:05;95720.72;;;21.47;61.91
70684;BME280;58263;48.146;11.440;2023-06-22T02:42:32;95714.25;;;21.43;62.02
70684;BME280;58263;48.146;11.440;2023-06-22T02:44:57;95724.34;;;21.42;62.00
70684;BME280;58263;48.146;11.440;2023-06-22T02:47:22;95715.94;;;21.39;62.11
70684;BME280;58263;48.146;11.440;2023-06-22T02:49:48;95717.34;;;21.36;62.25
70684;BME280;58263;48.146;11.440;2023-06-22T02:52:13;95718.50;;;21.35;61.95
70684;BME280;58263;48.146;11.440;2023-06-22T02:54:38;95715.53;;;21.32;62.18
70684;BME280;58263;48.146;11.440;2023-06-22T02:57:04;95708.16;;;21.32;62.34
70684;BME280;58263;48.146;11.440;2023-06-22T02:59:29;95714.44;;;21.33;62.33
70684;BME280;58263;48.146;11.440;2023-06-22T03:01:54;95693.31;;;21.24;62.19
70684;BME280;58263;48.146;11.440;2023-06-22T03:04:21;95704.78;;;21.21;62.71
70684;BME280;58263;48.146;11.440;2023-06-22T03:06:46;95695.59;;;21.17;62.79
70684;BME280;58263;48.146;11.440;2023-06-22T03:09:16;95694.56;;;21.13;62.73
70684;BME280;58263;48.146;11.440;2023-06-22T03:11:41;95700.84;;;21.14;62.74
70684;BME280;58263;48.146;11.440;2023-06-22T03:14:07;95704.47;;;21.09;63.36
70684;BME280;58263;48.146;11.440;2023-06-22T03:16:32;95700.03;;;21.13;63.18
70684;BME280;58263;48.146;11.440;2023-06-22T03:18:58;95697.41;;;21.08;63.47
70684;BME280;58263;48.146;11.440;2023-06-22T03:21:28;95696.88;;;21.06;63.51
70684;BME280;58263;48.146;11.440;2023-06-22T03:23:54;95687.06;;;21.05;63.37
70684;BME280;58263;48.146;11.440;2023-06-22T03:26:19;95687.38;;;21.03;63.66
70684;BME280;58263;48.146;11.440;2023-06-22T03:28:45;95688.47;;;21.02;63.78
70684;BME280;58263;48.146;11.440;2023-06-22T03:31:10;95689.91;;;21.00;63.47
70684;BME280;58263;48.146;11.440;2023-06-22T03:33:35;95691.09;;;20.93;64.11
70684;BME280;58263;48.146;11.440;2023-06-22T03:36:01;95688.66;;;20.92;64.07
70684;BME280;58263;48.146;11.440;2023-06-22T03:38:26;95697.06;;;20.96;64.28
70684;BME280;58263;48.146;11.440;2023-06-22T03:40:51;95705.25;;;20.96;64.11
70684;BME280;58263;48.146;11.440;2023-06-22T03:43:17;95707.97;;;20.96;64.23
70684;BME280;58263;48.146;11.440;2023-06-22T03:45:42;95710.19;;;20.93;64.13
70684;BME280;58263;48.146;11.440;2023-06-22T03:48:10;95703.09;;;20.92;64.37
70684;BME280;58263;48.146;11.440;2023-06-22T03:50:35;95705.63;;;20.89;64.68
70684;BME280;58263;48.146;11.440;2023-06-22T03:53:01;95698.16;;;20.94;64.15
70684;BME280;58263;48.146;11.440;2023-06-22T03:55:26;95694.50;;;20.85;64.74
70684;BME280;58263;48.146;11.440;2023-06-22T03:57:52;95699.44;;;20.83;64.95
70684;BME280;58263;48.146;11.440;2023-06-22T04:00:19;95707.03;;;20.86;64.62
70684;BME280;58263;48.146;11.440;2023-06-22T04:02:44;95716.31;;;20.85;65.27
70684;BME280;58263;48.146;11.440;2023-06-22T04:05:10;95725.38;;;20.81;65.21
70684;BME280;58263;48.146;11.440;2023-06-22T04:07:35;95730.53;;;20.82;65.31
70684;BME280;58263;48.146;11.440;2023-06-22T04:10:05;95733.03;;;20.79;65.50
70684;BME280;58263;48.146;11.440;2023-06-22T04:12:30;95721.91;;;20.75;65.55
70684;BME280;58263;48.146;11.440;2023-06-22T04:14:56;95723.53;;;20.76;65.68
70684;BME280;58263;48.146;11.440;2023-06-22T04:17:21;95709.91;;;20.76;65.55
70684;BME280;58263;48.146;11.440;2023-06-22T04:19:49;95701.13;;;20.79;65.61
70684;BME280;58263;48.146;11.440;2023-06-22T04:22:15;95703.59;;;20.81;65.68
70684;BME280;58263;48.146;11.440;2023-06-22T04:24:40;95710.13;;;20.80;65.95
70684;BME280;58263;48.146;11.440;2023-06-22T04:27:05;95704.16;;;20.77;65.80
70684;BME280;58263;48.146;11.440;2023-06-22T04:29:31;95709.53;;;20.83;65.70
70684;BME280;58263;48.146;11.440;2023-06-22T04:31:57;95719.09;;;20.80;66.41
70684;BME280;58263;48.146;11.440;2023-06-22T04:34:29;95713.88;;;20.65;66.88
70684;BME280;58263;48.146;11.440;2023-06-22T04:36:54;95716.91;;;20.44;67.75
70684;BME280;58263;48.146;11.440;2023-06-22T04:39:20;95713.28;;;20.49;67.82
70684;BME280;58263;48.146;11.440;2023-06-22T04:41:46;95704.81;;;20.50;67.63
70684;BME280;58263;48.146;11.440;2023-06-22T04:44:16;95705.84;;;20.54;67.93
70684;BME280;58263;48.146;11.440;2023-06-22T04:49:25;95693.78;;;20.60;67.68
70684;BME280;58263;48.146;11.440;2023-06-22T04:51:57;95695.06;;;20.68;67.41
70684;BME280;58263;48.146;11.440;2023-06-22T04:54:23;95693.47;;;20.81;66.89
70684;BME280;58263;48.146;11.440;2023-06-22T04:56:48;95694.72;;;20.89;66.69
70684;BME280;58263;48.146;11.440;2023-06-22T04:59:21;95701.19;;;20.93;66.51
70684;BME280;58263;48.146;11.440;2023-06-22T05:01:47;95703.44;;;21.05;66.42
70684;BME280;58263;48.146;11.440;2023-06-22T05:04:12;95695.09;;;21.15;66.39
70684;BME280;58263;48.146;11.440;2023-06-22T05:06:37;95700.97;;;21.22;66.35
70684;BME280;58263;48.146;11.440;2023-06-22T05:09:03;95693.88;;;21.21;66.36
70684;BME280;58263;48.146;11.440;2023-06-22T05:11:30;95686.31;;;21.32;66.01
70684;BME280;58263;48.146;11.440;2023-06-22T05:13:55;95684.91;;;21.35;66.12
70684;BME280;58263;48.146;11.440;2023-06-22T05:16:22;95685.63;;;21.40;65.93
70684;BME280;58263;48.146;11.440;2023-06-22T05:18:52;95687.38;;;21.50;65.74
70684;BME280;58263;48.146;11.440;2023-06-22T05:21:21;95679.53;;;21.63;65.07
70684;BME280;58263;48.146;11.440;2023-06-22T05:23:46;95681.44;;;21.76;64.61
70684;BME280;58263;48.146;11.440;2023-06-22T05:26:12;95680.31;;;21.91;64.14
70684;BME280;58263;48.146;11.440;2023-06-22T05:28:37;95676.59;;;22.01;63.78
70684;BME280;58263;48.146;11.440;2023-06-22T05:31:02;95676.25;;;22.16;63.42
70684;BME280;58263;48.146;11.440;2023-06-22T05:33:29;95685.34;;;22.25;63.36
70684;BME280;58263;48.146;11.440;2023-06-22T05:35:54;95678.63;;;22.32;63.11
70684;BME280;58263;48.146;11.440;2023-06-22T05:38:19;95672.16;;;22.41;62.42
70684;BME280;58263;48.146;11.440;2023-06-22T05:40:44;95682.38;;;22.50;62.42
70684;BME280;58263;48.146;11.440;2023-06-22T05:43:10;95681.31;;;22.59;61.97
70684;BME280;58263;48.146;11.440;2023-06-22T05:45:35;95670.28;;;22.65;62.18
70684;BME280;58263;48.146;11.440;2023-06-22T05:48:00;95670.66;;;22.72;61.84
70684;BME280;58263;48.146;11.440;2023-06-22T05:50:26;95665.53;;;22.79;61.63
70684;BME280;58263;48.146;11.440;2023-06-22T05:52:52;95668.50;;;22.91;60.77
70684;BME280;58263;48.146;11.440;2023-06-22T05:55:17;95665.84;;;23.00;60.54
70684;BME280;58263;48.146;11.440;2023-06-22T05:57:44;95675.41;;;23.11;60.90
70684;BME280;58263;48.146;11.440;2023-06-22T06:00:10;95691.78;;;23.25;60.06
70684;BME280;58263;48.146;11.440;2023-06-22T06:02:35;95690.75;;;23.44;59.37
70684;BME280;58263;48.146;11.440;2023-06-22T06:05:01;95693.06;;;23.59;58.73
70684;BME280;58263;48.146;11.440;2023-06-22T06:07:27;95687.66;;;23.77;58.82
70684;BME280;58263;48.146;11.440;2023-06-22T06:09:53;95687.13;;;23.98;58.41
70684;BME280;58263;48.146;11.440;2023-06-22T06:12:18;95688.09;;;24.10;57.83
70684;BME280;58263;48.146;11.440;2023-06-22T06:14:43;95678.16;;;24.23;57.13
70684;BME280;58263;48.146;11.440;2023-06-22T06:17:09;95678.31;;;24.36;56.85
70684;BME280;58263;48.146;11.440;2023-06-22T06:19:34;95675.28;;;24.46;56.85
70684;BME280;58263;48.146;11.440;2023-06-22T06:21:59;95670.13;;;24.53;56.51
70684;BME280;58263;48.146;11.440;2023-06-22T06:24:25;95665.94;;;24.64;55.83
70684;BME280;58263;48.146;11.440;2023-06-22T06:26:51;95653.50;;;24.85;55.22
70684;BME280;58263;48.146;11.440;2023-06-22T06:29:16;95657.19;;;24.97;54.75
70684;BME280;58263;48.146;11.440;2023-06-22T06:31:42;95652.34;;;25.03;54.85
70684;BME280;58263;48.146;11.440;2023-06-22T06:34:07;95662.00;;;25.18;55.08
70684;BME280;58263;48.146;11.440;2023-06-22T06:36:32;95665.22;;;25.38;54.05
70684;BME280;58263;48.146;11.440;2023-06-22T06:38:57;95665.50;;;25.45;53.89
70684;BME280;58263;48.146;11.440;2023-06-22T06:41:23;95661.75;;;25.58;53.52
70684;BME280;58263;48.146;11.440;2023-06-22T06:43:48;95663.47;;;25.72;53.38
70684;BME280;58263;48.146;11.440;2023-06-22T06:46:14;95664.34;;;25.93;52.68
70684;BME280;58263;48.146;11.440;2023-06-22T06:48:39;95662.13;;;26.17;51.75
70684;BME280;58263;48.146;11.440;2023-06-22T06:51:05;95653.88;;;26.38;51.01
70684;BME280;58263;48.146;11.440;2023-06-22T06:53:30;95650.00;;;26.39;51.74
70684;BME280;58263;48.146;11.440;2023-06-22T06:55:56;95649.69;;;26.61;50.70
70684;BME280;58263;48.146;11.440;2023-06-22T06:58:22;95654.94;;;26.75;50.04
70684;BME280;58263;48.146;11.440;2023-06-22T07:00:48;95647.81;;;26.74;50.34
70684;BME280;58263;48.146;11.440;2023-06-22T07:03:14;95646.66;;;26.75;50.16
70684;BME280;58263;48.146;11.440;2023-06-22T07:05:39;95659.06;;;26.81;49.90
70684;BME280;58263;48.146;11.440;2023-06-22T07:08:04;95645.72;;;27.05;49.23
70684;BME280;58263;48.146;11.440;2023-06-22T07:10:30;95657.50;;;27.26;49.09
70684;BME280;58263;48.146;11.440;2023-06-22T07:12:55;95664.69;;;27.52;48.63
70684;BME280;58263;48.146;11.440;2023-06-22T07:15:22;95654.25;;;27.70;47.89
70684;BME280;58263;48.146;11.440;2023-06-22T07:17:47;95656.09;;;27.78;47.44
70684;BME280;58263;48.146;11.440;2023-06-22T07:20:13;95655.69;;;28.01;47.06
70684;BME280;58263;48.146;11.440;2023-06-22T07:22:39;95650.50;;;28.12;46.02
70684;BME280;58263;48.146;11.440;2023-06-22T07:25:05;95652.06;;;28.38;46.43
70684;BME280;58263;48.146;11.440;2023-06-22T07:27:38;95643.16;;;28.57;45.35
70684;BME280;58263;48.146;11.440;2023-06-22T07:30:05;95644.84;;;28.74;45.11
70684;BME280;58263;48.146;11.440;2023-06-22T07:32:30;95643.72;;;28.75;44.49
70684;BME280;58263;48.146;11.440;2023-06-22T07:34:56;95626.69;;;28.73;44.80
70684;BME280;58263;48.146;11.440;2023-06-22T07:37:21;95634.63;;;28.74;44.93
70684;BME280;58263;48.146;11.440;2023-06-22T07:39:46;95632.56;;;28.99;44.67
70684;BME280;58263;48.146;11.440;2023-06-22T07:42:12;95623.91;;;29.29;43.49
70684;BME280;58263;48.146;11.440;2023-06-22T07:44:37;95626.31;;;29.47;43.79
70684;BME280;58263;48.146;11.440;2023-06-22T07:47:02;95612.84;;;29.61;42.97
70684;BME280;58263;48.146;11.440;2023-06-22T07:49:28;95617.06;;;29.71;43.28
70684;BME280;58263;48.146;11.440;2023-06-22T07:51:54;95615.88;;;29.88;42.86
70684;BME280;58263;48.146;11.440;2023-06-22T07:54:19;95619.69;;;29.99;42.10
70684;BME280;58263;48.146;11.440;2023-06-22T07:56:46;95612.75;;;30.06;42.78
70684;BME280;58263;48.146;11.440;2023-06-22T07:59:11;95613.59;;;30.26;41.64
70684;BME280;58263;48.146;11.440;2023-06-22T08:01:36;95612.25;;;30.55;41.29
70684;BME280;58263;48.146;11.440;2023-06-22T08:04:02;95616.41;;;30.65;40.53
70684;BME280;58263;48.146;11.440;2023-06-22T08:06:30;95614.09;;;30.67;40.12
70684;BME280;58263;48.146;11.440;2023-06-22T08:08:55;95623.78;;;30.77;40.41
70684;BME280;58263;48.146;11.440;2023-06-22T08:11:22;95620.72;;;30.82;40.25
70684;BME280;58263;48.146;11.440;2023-06-22T08:13:48;95621.81;;;30.42;40.89
70684;BME280;58263;48.146;11.440;2023-06-22T08:16:14;95624.44;;;30.34;40.99
70684;BME280;58263;48.146;11.440;2023-06-22T08:18:40;95618.09;;;30.70;40.60
70684;BME280;58263;48.146;11.440;2023-06-22T08:21:05;95613.78;;;30.92;39.63
70684;BME280;58263;48.146;11.440;2023-06-22T08:23:30;95607.31;;;31.04;39.36
70684;BME280;58263;48.146;11.440;2023-06-22T08:25:56;95606.00;;;31.40;39.43
70684;BME280;58263;48.146;11.440;2023-06-22T08:28:21;95602.13;;;31.68;38.64
70684;BME280;58263;48.146;11.440;2023-06-22T08:30:46;95590.91;;;31.61;38.14
70684;BME280;58263;48.146;11.440;2023-06-22T08:33:12;95609.28;;;31.69;38.46
70684;BME280;58263;48.146;11.440;2023-06-22T08:35:37;95610.53;;;31.75;37.88
70684;BME280;58263;48.146;11.440;2023-06-22T08:38:03;95611.47;;;31.83;37.69
70684;BME280;58263;48.146;11.440;2023-06-22T08:40:29;95604.31;;;31.82;37.57
70684;BME280;58263;48.146;11.440;2023-06-22T08:42:54;95615.50;;;31.62;38.02
70684;BME280;58263;48.146;11.440;2023-06-22T08:45:20;95613.78;;;31.81;37.82
70684;BME280;58263;48.146;11.440;2023-06-22T08:47:45;95600.94;;;31.69;37.96
70684;BME280;58263;48.146;11.440;2023-06-22T08:50:11;95601.84;;;31.77;37.61
70684;BME280;58263;48.146;11.440;2023-06-22T08:52:38;95599.81;;;31.74;38.05
70684;BME280;58263;48.146;11.440;2023-06-22T08:55:06;95599.94;;;31.81;37.59
70684;BME280;58263;48.146;11.440;2023-06-22T08:57:32;95603.09;;;32.06;37.18
70684;BME280;58263;48.146;11.440;2023-06-22T08:59:58;95597.91;;;32.31;36.60
70684;BME280;58263;48.146;11.440;2023-06-22T09:02:27;95597.47;;;32.56;36.20
70684;BME280;58263;48.146;11.440;2023-06-22T09:04:57;95597.94;;;32.65;36.69
70684;BME280;58263;48.146;11.440;2023-06-22T09:07:23;95597.91;;;32.92;36.29
70684;BME280;58263;48.146;11.440;2023-06-22T09:09:50;95596.53;;;33.13;36.19
70684;BME280;58263;48.146;11.440;2023-06-22T09:12:15;95595.94;;;33.30;35.83
70684;BME280;58263;48.146;11.440;2023-06-22T09:14:41;95591.59;;;33.33;34.58
70684;BME280;58263;48.146;11.440;2023-06-22T09:17:06;95596.31;;;33.29;35.08
70684;BME280;58263;48.146;11.440;2023-06-22T09:19:31;95596.44;;;33.40;35.00
70684;BME280;58263;48.146;11.440;2023-06-22T09:21:57;95579.63;;;33.74;34.85
70684;BME280;58263;48.146;11.440;2023-06-22T09:24:22;95589.81;;;34.03;34.30
70684;BME280;58263;48.146;11.440;2023-06-22T09:26:47;95587.91;;;34.22;33.47
70684;BME280;58263;48.146;11.440;2023-06-22T09:29:13;95587.28;;;34.47;32.96
70684;BME280;58263;48.146;11.440;2023-06-22T09:31:38;95577.59;;;34.26;32.90
70684;BME280;58263;48.146;11.440;2023-06-22T09:34:04;95577.31;;;34.42;32.98
70684;BME280;58263;48.146;11.440;2023-06-22T09:36:29;95576.09;;;34.40;32.60
70684;BME280;58263;48.146;11.440;2023-06-22T09:38:55;95580.16;;;34.53;32.51
70684;BME280;58263;48.146;11.440;2023-06-22T09:41:23;95582.22;;;34.78;32.31
70684;BME280;58263;48.146;11.440;2023-06-22T09:43:49;95582.59;;;34.73;31.69
70684;BME280;58263;48.146;11.440;2023-06-22T09:46:17;95582.28;;;34.85;32.21
70684;BME280;58263;48.146;11.440;2023-06-22T09:48:42;95574.00;;;35.14;31.42
70684;BME280;58263;48.146;11.440;2023-06-22T09:51:08;95574.03;;;35.35;31.79
70684;BME280;58263;48.146;11.440;2023-06-22T09:53:33;95564.84;;;35.31;30.89
70684;BME280;58263;48.146;11.440;2023-06-22T09:56:00;95561.72;;;35.51;31.59
70684;BME280;58263;48.146;11.440;2023-06-22T09:58:25;95562.13;;;35.67;30.33
70684;BME280;58263;48.146;11.440;2023-06-22T10:00:51;95562.13;;;35.60;30.33
70684;BME280;58263;48.146;11.440;2023-06-22T10:03:16;95552.53;;;35.61;30.50
70684;BME280;58263;48.146;11.440;2023-06-22T10:05:41;95546.97;;;35.79;30.80
70684;BME280;58263;48.146;11.440;2023-06-22T10:08:07;95552.91;;;36.03;30.86
70684;BME280;58263;48.146;11.440;2023-06-22T10:10:34;95542.47;;;36.25;30.55
70684;BME280;58263;48.146;11.440;2023-06-22T10:13:07;95542.81;;;36.56;30.19
70684;BME280;58263;48.146;11.440;2023-06-22T10:15:33;95551.88;;;36.78;29.80
70684;BME280;58263;48.146;11.440;2023-06-22T10:17:58;95546.66;;;36.91;29.12
70684;BME280;58263;48.146;11.440;2023-06-22T10:20:23;95548.94;;;37.07;28.24
70684;BME280;58263;48.146;11.440;2023-06-22T10:22:49;95549.69;;;37.15;27.89
70684;BME280;58263;48.146;11.440;2023-06-22T10:25:14;95552.44;;;37.22;27.82
70684;BME280;58263;48.146;11.440;2023-06-22T10:27:40;95543.06;;;37.54;27.67
70684;BME280;58263;48.146;11.440;2023-06-22T10:30:09;95546.91;;;37.71;27.68
70684;BME280;58263;48.146;11.440;2023-06-22T10:32:35;95547.66;;;37.79;26.63
70684;BME280;58263;48.146;11.440;2023-06-22T10:35:01;95535.09;;;37.94;26.57
70684;BME280;58263;48.146;11.440;2023-06-22T10:37:27;95537.06;;;37.52;27.11
70684;BME280;58263;48.146;11.440;2023-06-22T10:39:52;95529.72;;;38.11;26.89
70684;BME280;58263;48.146;11.440;2023-06-22T10:42:17;95525.91;;;39.52;24.71
70684;BME280;58263;48.146;11.440;2023-06-22T10:44:43;95521.78;;;40.08;24.43
70684;BME280;58263;48.146;11.440;2023-06-22T10:47:09;95514.00;;;39.17;24.99
70684;BME280;58263;48.146;11.440;2023-06-22T10:49:37;95514.75;;;39.21;25.48
70684;BME280;58263;48.146;11.440;2023-06-22T10:52:03;95511.91;;;39.48;25.12
70684;BME280;58263;48.146;11.440;2023-06-22T10:54:28;95508.22;;;39.00;25.88
70684;BME280;58263;48.146;11.440;2023-06-22T10:56:54;95508.28;;;38.66;26.05
70684;BME280;58263;48.146;11.440;2023-06-22T10:59:19;95506.66;;;37.99;27.10
70684;BME280;58263;48.146;11.440;2023-06-22T11:01:46;95504.66;;;37.54;27.39
70684;BME280;58263;48.146;11.440;2023-06-22T11:04:12;95515.25;;;37.29;28.43
70684;BME280;58263;48.146;11.440;2023-06-22T11:06:37;95515.44;;;37.03;28.47
70684;BME280;58263;48.146;11.440;2023-06-22T11:09:02;95513.91;;;36.92;28.59
70684;BME280;58263;48.146;11.440;2023-06-22T11:11:29;95511.41;;;37.04;28.60
70684;BME280;58263;48.146;11.440;2023-06-22T11:13:54;95507.34;;;37.13;28.17
70684;BME280;58263;48.146;11.440;2023-06-22T11:16:19;95507.31;;;37.20;28.50
70684;BME280;58263;48.146;11.440;2023-06-22T11:18:44;95500.19;;;37.12;28.94
70684;BME280;58263;48.146;11.440;2023-06-22T11:21:10;95504.16;;;37.14;29.13
70684;BME280;58263;48.146;11.440;2023-06-22T11:23:35;95511.94;;;37.45;28.54
70684;BME280;58263;48.146;11.440;2023-06-22T11:26:00;95499.78;;;37.62;28.28
70684;BME280;58263;48.146;11.440;2023-06-22T11:28:27;95492.66;;;37.54;27.95
70684;BME280;58263;48.146;11.440;2023-06-22T11:30:52;95493.09;;;37.94;27.65
70684;BME280;58263;48.146;11.440;2023-06-22T11:33:18;95481.19;;;38.21;27.67
70684;BME280;58263;48.146;11.440;2023-06-22T11:35:43;95495.66;;;38.50;27.12
70684;BME280;58263;48.146;11.440;2023-06-22T11:38:09;95484.19;;;38.72;26.81
70684;BME280;58263;48.146;11.440;2023-06-22T11:40:34;95479.25;;;38.83;26.31
70684;BME280;58263;48.146;11.440;2023-06-22T11:42:59;95471.13;;;38.89;26.32
70684;BME280;58263;48.146;11.440;2023-06-22T11:45:25;95469.34;;;39.02;26.32
70684;BME280;58263;48.146;11.440;2023-06-22T11:47:50;95477.47;;;38.93;26.77
70684;BME280;58263;48.146;11.440;2023-06-22T11:50:15;95469.72;;;39.01;26.21
70684;BME280;58263;48.146;11.440;2023-06-22T11:52:41;95473.03;;;38.96;26.56
70684;BME280;58263;48.146;11.440;2023-06-22T11:55:06;95465.53;;;38.89;27.80
70684;BME280;58263;48.146;11.440;2023-06-22T11:57:35;95465.66;;;39.05;25.91
70684;BME280;58263;48.146;11.440;2023-06-22T12:00:00;95456.69;;;39.14;26.49
70684;BME280;58263;48.146;11.440;2023-06-22T12:02:26;95457.94;;;38.86;26.13
70684;BME280;58263;48.146;11.440;2023-06-22T12:04:51;95454.97;;;38.97;26.60
70684;BME280;58263;48.146;11.440;2023-06-22T12:07:18;95455.53;;;39.15;26.10
70684;BME280;58263;48.146;11.440;2023-06-22T12:09:43;95450.22;;;38.94;26.53
70684;BME280;58263;48.146;11.440;2023-06-22T12:12:09;95456.19;;;39.23;26.03
70684;BME280;58263;48.146;11.440;2023-06-22T12:14:34;95443.34;;;38.98;26.38
70684;BME280;58263;48.146;11.440;2023-06-22T12:16:59;95437.34;;;38.96;26.48
70684;BME280;58263;48.146;11.440;2023-06-22T12:19:25;95440.97;;;38.69;26.69
70684;BME280;58263;48.146;11.440;2023-06-22T12:21:50;95435.13;;;38.26;27.38
70684;BME280;58263;48.146;11.440;2023-06-22T12:24:15;95425.31;;;38.07;27.41
70684;BME280;58263;48.146;11.440;2023-06-22T12:26:41;95426.06;;;38.11;27.79
70684;BME280;58263;48.146;11.440;2023-06-22T12:29:06;95428.97;;;38.03;27.63
70684;BME280;58263;48.146;11.440;2023-06-22T12:31:32;95424.63;;;38.33;27.50
70684;BME280;58263;48.146;11.440;2023-06-22T12:33:57;95417.00;;;38.61;26.92
70684;BME280;58263;48.146;11.440;2023-06-22T12:36:22;95421.44;;;38.59;26.57
70684;BME280;58263;48.146;11.440;2023-06-22T12:38:47;95425.13;;;38.55;26.45
70684;BME280;58263;48.146;11.440;2023-06-22T12:41:13;95421.44;;;38.31;26.45
70684;BME280;58263;48.146;11.440;2023-06-22T12:43:38;95412.00;;;38.18;27.05
70684;BME280;58263;48.146;11.440;2023-06-22T12:46:03;95408.94;;;38.05;27.46
70684;BME280;58263;48.146;11.440;2023-06-22T12:48:29;95407.34;;;38.04;27.29
70684;BME280;58263;48.146;11.440;2023-06-22T12:50:54;95400.31;;;37.92;27.14
70684;BME280;58263;48.146;11.440;2023-06-22T12:53:19;95397.28;;;37.76;27.34
70684;BME280;58263;48.146;11.440;2023-06-22T12:55:45;95401.44;;;37.60;28.08